Time;durP1;ratioP1;P1;durP2;ratioP2;P2;SDS_P1;SDS_P2;PMS_P1;PMS_P2;Temp;Humidity;BMP_temperature;BMP_pressure;BME280_temperature;BME280_humidity;BME280_pressure;Samples;Min_cycle;Max_cycle;Signal;HPM_P1;HPM_P2
2022/09/08 00:01:58;;;;;;;;;1.33;1.33;;;;;18.91;67.25;100484.53;5038435;28;45257;-69
2022/09/08 00:04:24;;;;;;;;;1.67;1.00;;;;;19.15;67.38;100519.78;5039189;28;46406;-69
2022/09/08 00:06:49;;;;;;;;;3.00;1.00;;;;;19.19;66.99;100519.38;5039400;28;45181;-69
2022/09/08 00:09:14;;;;;;;;;0.33;0.33;;;;;19.23;67.07;100516.09;5037891;28;45229;-68
2022/09/08 00:11:40;;;;;;;;;2.00;2.00;;;;;19.19;66.92;100513.97;5039607;28;45559;-70
2022/09/08 00:14:08;;;;;;;;;1.00;1.00;;;;;19.05;67.25;100505.91;5054486;28;47515;-68
2022/09/08 00:16:33;;;;;;;;;0.00;0.00;;;;;19.13;67.02;100521.03;5039007;28;45531;-67
2022/09/08 00:18:59;;;;;;;;;1.00;1.00;;;;;19.21;67.21;100522.69;5054467;28;45525;-68
2022/09/08 00:21:28;;;;;;;;;3.00;1.67;;;;;19.06;67.02;100499.47;5039262;28;45322;-68
2022/09/08 00:23:53;;;;;;;;;3.00;1.00;;;;;19.06;67.38;100521.03;5038943;28;46596;-68
2022/09/08 00:26:20;;;;;;;;;1.00;1.00;;;;;18.99;67.67;100524.72;5038778;28;45349;-68
2022/09/08 00:28:46;;;;;;;;;0.67;0.67;;;;;19.07;67.41;100527.25;5039117;28;45505;-68
2022/09/08 00:31:11;;;;;;;;;1.00;0.00;;;;;18.54;67.07;100428.25;5039002;28;45458;-68
2022/09/08 00:33:36;;;;;;;;;1.33;1.00;;;;;19.05;67.56;100524.75;5038743;28;46354;-68
2022/09/08 00:36:03;;;;;;;;;0.00;0.00;;;;;18.98;67.43;100518.50;5038786;28;45418;-69
2022/09/08 00:38:30;;;;;;;;;1.00;1.00;;;;;18.45;67.43;100425.97;5038633;28;45317;-68
2022/09/08 00:40:57;;;;;;;;;0.00;0.00;;;;;18.94;67.85;100517.25;5037720;28;45230;-68
2022/09/08 00:43:32;;;;;;;;;1.00;0.00;;;;;18.92;68.18;100513.94;5038514;28;45982;-69
2022/09/08 00:46:05;;;;;;;;;0.67;0.67;;;;;18.94;68.06;100525.34;5038389;28;45401;-70
2022/09/08 00:48:31;;;;;;;;;1.00;1.00;;;;;18.81;68.15;100496.50;5038857;28;45466;-70
2022/09/08 00:50:58;;;;;;;;;0.00;0.00;;;;;18.84;67.88;100522.22;5038905;28;45270;-68
2022/09/08 00:53:25;;;;;;;;;1.00;1.00;;;;;18.80;67.95;100512.88;5038369;28;46469;-68
2022/09/08 00:55:51;;;;;;;;;2.00;2.00;;;;;18.73;67.80;100503.94;5036857;28;46037;-68
2022/09/08 00:58:17;;;;;;;;;0.00;0.00;;;;;18.77;67.60;100499.81;5037071;28;45613;-68
2022/09/08 01:00:43;;;;;;;;;0.00;0.00;;;;;18.76;67.47;100504.38;5038592;28;45280;-68
2022/09/08 01:03:12;;;;;;;;;1.33;1.33;;;;;18.67;67.22;100494.00;5036855;28;48105;-67
2022/09/08 01:05:52;;;;;;;;;0.67;0.67;;;;;18.79;67.36;100508.50;5038305;28;45507;-68
2022/09/08 01:14:19;;;;;;;;;2.00;0.00;;;;;18.82;67.11;100505.41;5038106;28;45415;-67
2022/09/08 01:16:48;;;;;;;;;3.00;0.33;;;;;18.87;67.20;100523.69;5038341;28;45370;-68
2022/09/08 01:19:28;;;;;;;;;0.33;0.33;;;;;18.76;67.05;100512.44;5036970;28;45333;-68
2022/09/08 01:22:21;;;;;;;;;1.67;1.00;;;;;18.82;67.42;100526.97;5039007;28;45214;-68
2022/09/08 01:25:04;;;;;;;;;0.67;0.00;;;;;18.71;67.17;100508.72;5040259;28;45647;-67
2022/09/08 01:27:31;;;;;;;;;1.00;1.00;;;;;18.90;67.08;100529.50;5041610;28;45238;-67
2022/09/08 01:30:01;;;;;;;;;0.00;0.00;;;;;18.91;66.96;100527.63;5037863;28;45478;-68
2022/09/08 01:32:30;;;;;;;;;1.00;1.00;;;;;18.88;66.75;100539.63;5038177;28;45162;-69
2022/09/08 01:34:56;;;;;;;;;1.00;1.00;;;;;18.34;66.93;100448.91;5037888;28;45666;-69
2022/09/08 01:37:21;;;;;;;;;0.67;0.67;;;;;18.86;66.95;100533.63;5037939;28;45433;-69
2022/09/08 01:39:46;;;;;;;;;3.00;2.00;;;;;18.83;67.15;100534.03;5037026;28;45449;-68
2022/09/08 01:42:12;;;;;;;;;1.67;1.67;;;;;18.94;66.65;100533.44;5037826;28;45423;-68
2022/09/08 01:44:37;;;;;;;;;0.00;0.00;;;;;19.03;66.36;100548.38;5037823;28;46440;-69
2022/09/08 01:47:03;;;;;;;;;1.00;1.00;;;;;19.06;66.48;100556.06;5037640;28;45272;-69
2022/09/08 01:49:28;;;;;;;;;1.00;1.00;;;;;18.95;66.40;100526.16;5036325;28;45439;-68
2022/09/08 01:51:54;;;;;;;;;1.00;1.00;;;;;19.11;66.14;100552.75;5037564;28;45399;-69
2022/09/08 01:54:19;;;;;;;;;1.00;1.00;;;;;19.03;66.43;100551.06;5052956;28;47705;-68
2022/09/08 01:56:44;;;;;;;;;1.00;1.00;;;;;18.47;66.69;100469.69;5037453;28;45443;-69
2022/09/08 01:59:10;;;;;;;;;0.00;0.00;;;;;19.02;67.03;100559.34;5037234;28;57980;-68
2022/09/08 02:01:35;;;;;;;;;2.00;1.00;;;;;18.95;67.00;100561.19;5037653;28;45951;-69
2022/09/08 02:04:01;;;;;;;;;1.00;1.00;;;;;18.90;67.40;100564.50;5035990;28;47605;-68
2022/09/08 02:06:27;;;;;;;;;1.00;1.00;;;;;18.76;67.62;100549.31;5037332;28;45673;-68
2022/09/08 02:08:53;;;;;;;;;1.00;1.00;;;;;18.70;67.50;100547.44;5037603;28;45446;-68
2022/09/08 02:11:19;;;;;;;;;2.00;1.00;;;;;18.75;67.59;100561.13;5052992;28;45501;-68
2022/09/08 02:13:44;;;;;;;;;0.67;0.67;;;;;18.55;68.05;100536.78;5037199;28;45511;-69
2022/09/08 02:16:11;;;;;;;;;2.00;2.00;;;;;18.26;67.78;100492.16;5037023;28;45205;-69
2022/09/08 02:18:38;;;;;;;;;2.33;0.00;;;;;18.54;68.30;100533.25;5035928;28;45426;-68
2022/09/08 02:21:10;;;;;;;;;0.67;0.67;;;;;18.62;68.00;100534.97;5037160;28;45482;-68
2022/09/08 02:23:39;;;;;;;;;1.00;1.00;;;;;18.78;68.17;100566.09;5037230;28;46488;-68
2022/09/08 02:26:05;;;;;;;;;1.00;1.00;;;;;18.78;67.93;100561.56;5052332;28;45358;-67
2022/09/08 02:28:30;;;;;;;;;2.67;0.33;;;;;18.78;67.88;100561.56;5037095;28;45229;-68
2022/09/08 02:30:58;;;;;;;;;0.33;0.33;;;;;18.73;67.82;100530.88;5037322;28;45448;-68
2022/09/08 02:33:24;;;;;;;;;3.00;1.00;;;;;18.87;67.52;100553.31;5036901;28;46547;-67
2022/09/08 02:35:49;;;;;;;;;1.00;1.00;;;;;18.75;67.71;100548.50;5035631;28;45263;-68
2022/09/08 02:38:15;;;;;;;;;1.00;1.00;;;;;18.74;67.73;100546.00;5036750;28;45490;-68
2022/09/08 02:40:41;;;;;;;;;2.00;1.00;;;;;18.69;68.10;100541.22;5035921;28;45462;-68
2022/09/08 02:43:06;;;;;;;;;2.00;1.00;;;;;18.52;67.83;100513.78;5035534;28;46369;-69
2022/09/08 02:45:31;;;;;;;;;1.50;1.50;;;;;18.58;68.44;100535.56;5036887;28;45296;-68
2022/09/08 02:47:58;;;;;;;;;1.67;1.00;;;;;18.63;67.98;100546.59;5037198;28;45288;-68
2022/09/08 02:50:23;;;;;;;;;4.67;2.33;;;;;18.57;68.44;100541.97;5037164;28;45341;-68
2022/09/08 02:52:49;;;;;;;;;1.00;1.00;;;;;18.25;68.02;100477.03;5040249;28;46454;-69
2022/09/08 02:55:14;;;;;;;;;4.00;2.00;;;;;18.49;68.20;100521.44;5038718;28;45459;-68
2022/09/08 02:57:39;;;;;;;;;1.33;1.00;;;;;18.39;68.48;100518.28;5040482;28;45374;-68
2022/09/08 03:00:05;;;;;;;;;0.67;0.67;;;;;18.30;68.46;100509.56;5040494;28;45248;-69
2022/09/08 03:02:31;;;;;;;;;2.33;2.00;;;;;18.33;69.49;100521.78;5039916;28;45547;-68
2022/09/08 03:04:56;;;;;;;;;1.00;1.00;;;;;18.31;69.18;100510.41;5040367;28;45248;-68
2022/09/08 03:07:22;;;;;;;;;1.33;1.33;;;;;18.24;69.21;100513.06;5040256;28;45276;-67
2022/09/08 03:09:49;;;;;;;;;1.00;1.00;;;;;18.25;69.19;100509.34;5038993;28;45407;-69
2022/09/08 03:12:14;;;;;;;;;2.00;2.00;;;;;18.19;69.44;100504.72;5042482;28;46711;-68
2022/09/08 03:14:40;;;;;;;;;1.00;1.00;;;;;18.15;69.93;100495.41;5042239;28;45337;-70
2022/09/08 03:17:05;;;;;;;;;2.00;2.00;;;;;18.17;69.70;100498.72;5055669;28;45396;-68
2022/09/08 03:19:31;;;;;;;;;1.00;1.00;;;;;17.57;69.92;100422.22;5038998;28;45489;-68
2022/09/08 03:21:56;;;;;;;;;1.00;1.00;;;;;17.62;69.93;100435.94;5038352;28;47746;-67
2022/09/08 03:24:21;;;;;;;;;2.00;2.00;;;;;18.01;70.07;100507.13;5038548;28;45329;-67
2022/09/08 03:26:46;;;;;;;;;1.00;1.00;;;;;18.04;70.32;100498.66;5038706;28;45372;-67
2022/09/08 03:29:12;;;;;;;;;2.67;1.00;;;;;17.98;70.44;100494.06;5039375;28;54668;-67
2022/09/08 03:31:37;;;;;;;;;1.00;1.00;;;;;17.93;70.41;100498.19;5039633;28;46316;-68
2022/09/08 03:34:03;;;;;;;;;3.00;2.00;;;;;17.91;70.50;100489.50;5039638;28;45258;-67
2022/09/08 03:36:28;;;;;;;;;2.00;2.00;;;;;17.89;70.54;100486.16;5039409;28;51664;-67
2022/09/08 03:38:54;;;;;;;;;1.00;1.00;;;;;17.88;70.80;100479.13;5039929;28;45407;-69
2022/09/08 03:41:19;;;;;;;;;1.00;1.00;;;;;17.98;70.99;100492.22;5038000;28;47480;-69
2022/09/08 03:43:48;;;;;;;;;3.00;2.00;;;;;18.04;70.51;100491.44;5039529;28;45387;-68
2022/09/08 03:46:14;;;;;;;;;3.33;3.33;;;;;18.15;70.02;100496.22;5039520;28;45519;-68
2022/09/08 03:48:40;;;;;;;;;3.67;2.00;;;;;18.13;70.32;100497.47;5039511;28;45179;-68
2022/09/08 03:51:15;;;;;;;;;4.00;2.00;;;;;18.15;70.16;100498.09;5039236;28;46313;-68
2022/09/08 03:53:41;;;;;;;;;1.33;1.33;;;;;18.10;70.13;100487.09;5038033;28;45439;-67
2022/09/08 03:56:08;;;;;;;;;4.00;3.00;;;;;18.16;69.91;100495.19;5037790;28;45385;-68
2022/09/08 03:58:34;;;;;;;;;2.67;2.00;;;;;18.12;69.88;100491.25;5039323;28;45501;-68
2022/09/08 04:01:00;;;;;;;;;2.00;2.00;;;;;18.14;70.10;100482.97;5039296;28;45826;-68
2022/09/08 04:03:26;;;;;;;;;2.33;2.33;;;;;18.06;70.39;100475.91;5037288;28;45458;-68
2022/09/08 04:05:52;;;;;;;;;5.33;3.67;;;;;18.11;70.13;100489.59;5039446;28;45146;-67
2022/09/08 04:08:17;;;;;;;;;4.67;4.67;;;;;18.26;70.03;100489.47;5039343;28;45607;-68
2022/09/08 04:10:43;;;;;;;;;4.33;4.33;;;;;18.21;70.00;100491.91;5039005;28;49159;-69
2022/09/08 04:13:08;;;;;;;;;4.00;4.00;;;;;18.24;70.00;100494.22;5053830;28;45424;-68
2022/09/08 04:15:33;;;;;;;;;8.67;3.33;;;;;18.28;69.85;100500.88;5039083;28;45185;-69
2022/09/08 04:17:59;;;;;;;;;3.33;3.00;;;;;18.27;69.79;100504.59;5039179;28;45248;-67
2022/09/08 04:20:24;;;;;;;;;5.00;3.00;;;;;18.28;70.24;100498.16;5038628;28;45590;-67
2022/09/08 04:22:50;;;;;;;;;4.00;3.67;;;;;18.15;69.75;100484.66;5038893;28;45223;-68
2022/09/08 04:25:15;;;;;;;;;4.67;4.00;;;;;18.22;70.27;100497.13;5038990;28;45258;-68
2022/09/08 04:27:41;;;;;;;;;4.00;2.67;;;;;18.09;70.53;100486.28;5038970;28;45301;-67
2022/09/08 04:30:07;;;;;;;;;5.67;3.00;;;;;18.26;70.00;100492.16;5039224;28;46497;-69
2022/09/08 04:32:34;;;;;;;;;2.33;2.33;;;;;18.27;70.30;100491.13;5037523;28;46042;-68
2022/09/08 04:34:59;;;;;;;;;6.00;3.33;;;;;18.23;70.04;100482.63;5039019;28;45341;-68
2022/09/08 04:37:25;;;;;;;;;3.00;3.00;;;;;18.29;69.94;100488.22;5038588;28;46328;-67
2022/09/08 04:39:50;;;;;;;;;4.00;4.00;;;;;18.22;69.91;100466.69;5038572;28;46102;-69
2022/09/08 04:42:16;;;;;;;;;4.00;4.00;;;;;18.34;70.02;100475.81;5054474;28;46140;-68
2022/09/08 04:44:42;;;;;;;;;2.33;2.33;;;;;18.23;70.08;100471.03;5038746;28;45178;-67
2022/09/08 04:47:07;;;;;;;;;4.67;3.33;;;;;18.28;70.08;100487.41;5037098;28;45198;-69
2022/09/08 04:49:33;;;;;;;;;6.00;4.00;;;;;18.23;69.92;100471.03;5037175;28;47994;-68
2022/09/08 04:51:58;;;;;;;;;1.00;1.00;;;;;18.13;69.95;100454.41;5037137;28;45388;-68
2022/09/08 04:54:24;;;;;;;;;2.00;2.00;;;;;18.16;69.96;100467.47;5038546;28;45302;-69
2022/09/08 04:56:49;;;;;;;;;2.67;2.67;;;;;18.32;69.71;100475.19;5038909;28;45515;-68
2022/09/08 04:59:17;;;;;;;;;3.67;3.00;;;;;18.31;69.51;100468.16;5041488;28;47653;-69
2022/09/08 05:01:42;;;;;;;;;2.67;1.67;;;;;18.39;69.61;100481.44;5040412;28;45403;-68
2022/09/08 05:04:08;;;;;;;;;2.00;2.00;;;;;18.44;69.63;100484.38;5038422;28;45456;-68
2022/09/08 05:06:35;;;;;;;;;6.00;2.00;;;;;18.46;69.53;100487.69;5038354;28;45372;-70
2022/09/08 05:09:02;;;;;;;;;4.00;4.00;;;;;18.35;69.29;100464.03;5038214;28;46470;-68
2022/09/08 05:11:30;;;;;;;;;3.67;2.33;;;;;18.43;69.33;100477.34;5037943;28;45443;-71
2022/09/08 05:13:56;;;;;;;;;2.33;2.33;;;;;18.45;69.61;100496.78;5035959;28;45217;-68
2022/09/08 05:16:24;;;;;;;;;4.00;2.33;;;;;18.37;69.67;100496.94;5038335;28;45597;-67
2022/09/08 05:18:56;;;;;;;;;3.67;3.67;;;;;18.30;69.74;100471.88;5037733;28;46497;-67
2022/09/08 05:21:22;;;;;;;;;3.00;1.00;;;;;18.37;69.66;100477.28;5038047;28;45501;-68
2022/09/08 05:23:52;;;;;;;;;2.00;1.00;;;;;18.45;69.38;100491.41;5037983;28;45259;-69
2022/09/08 05:26:20;;;;;;;;;2.67;2.33;;;;;18.38;69.48;100482.47;5038219;28;45348;-69
2022/09/08 05:28:45;;;;;;;;;3.33;3.33;;;;;18.50;68.93;100491.63;5038089;28;46759;-68
2022/09/08 05:31:17;;;;;;;;;3.00;3.00;;;;;18.44;69.41;100499.69;5037804;28;45329;-69
2022/09/08 05:33:43;;;;;;;;;2.67;2.33;;;;;18.43;69.59;100504.25;5036718;28;45253;-68
2022/09/08 05:36:15;;;;;;;;;2.00;2.00;;;;;17.83;69.43;100406.28;5053478;28;45597;-69
2022/09/08 05:38:41;;;;;;;;;2.00;2.00;;;;;18.39;69.20;100502.97;5037554;28;46271;-69
2022/09/08 05:41:06;;;;;;;;;3.67;2.00;;;;;18.30;69.41;100474.56;5037607;28;45467;-69
2022/09/08 05:43:32;;;;;;;;;6.00;3.00;;;;;18.38;68.84;100474.38;5037598;28;45293;-71
2022/09/08 05:45:57;;;;;;;;;4.00;3.00;;;;;18.02;68.96;100409.25;5038170;28;45491;-68
2022/09/08 05:48:23;;;;;;;;;2.33;2.33;;;;;18.57;68.79;100506.97;5037642;28;45566;-69
2022/09/08 05:50:48;;;;;;;;;3.00;2.00;;;;;18.07;68.70;100418.41;5027019;28;45373;-69
2022/09/08 05:53:14;;;;;;;;;3.33;3.33;;;;;18.65;68.65;100496.06;5026861;28;45326;-70
2022/09/08 05:55:40;;;;;;;;;4.00;2.00;;;;;18.11;68.23;100402.69;5033479;28;45285;-69
2022/09/08 05:58:13;;;;;;;;;5.33;4.67;;;;;18.58;68.71;100501.38;5017223;28;45592;-68
2022/09/08 06:00:38;;;;;;;;;4.33;3.00;;;;;18.63;68.52;100504.34;5021232;28;45293;-72
2022/09/08 06:03:04;;;;;;;;;4.33;3.33;;;;;18.65;68.65;100506.84;5035802;28;45691;-68
2022/09/08 06:05:29;;;;;;;;;4.00;2.33;;;;;18.64;68.22;100494.41;5023163;28;45388;-70
2022/09/08 06:07:55;;;;;;;;;2.00;2.00;;;;;18.71;68.17;100506.03;5034354;28;45668;-70
2022/09/08 06:10:20;;;;;;;;;4.67;4.00;;;;;18.80;68.52;100511.00;5050224;28;45429;-70
2022/09/08 06:12:46;;;;;;;;;5.33;4.33;;;;;18.88;67.99;100507.31;5046842;28;45624;-70
2022/09/08 06:15:12;;;;;;;;;4.33;3.33;;;;;18.92;67.77;100508.56;5017019;28;45554;-70
2022/09/08 06:17:38;;;;;;;;;5.67;4.00;;;;;18.95;67.51;100518.09;5017090;28;45464;-73
2022/09/08 06:20:05;;;;;;;;;4.33;3.00;;;;;18.91;67.77;100520.38;5017525;28;46356;-68
2022/09/08 06:22:34;;;;;;;;;5.33;4.33;;;;;18.97;67.53;100516.84;5024944;28;45482;-70
2022/09/08 06:25:00;;;;;;;;;3.67;3.00;;;;;18.64;67.28;100448.63;5036054;28;45331;-71
2022/09/08 06:27:42;;;;;;;;;3.67;3.67;;;;;19.20;66.72;100529.13;5037135;28;46137;-70
2022/09/08 06:30:16;;;;;;;;;4.00;2.00;;;;;18.73;66.61;100439.31;5037458;28;45444;-70
2022/09/08 06:33:08;;;;;;;;;5.00;4.00;;;;;19.15;66.66;100509.00;5037095;28;45337;-68
2022/09/08 06:35:33;;;;;;;;;6.67;3.00;;;;;19.36;66.33;100510.69;5036685;28;45447;-71
2022/09/08 06:38:11;;;;;;;;;2.67;2.33;;;;;19.78;65.60;100492.41;5036414;28;46247;-69
2022/09/08 06:40:40;;;;;;;;;12.33;11.33;;;;;20.25;63.73;100504.78;5035309;28;45441;-68
2022/09/08 06:43:15;;;;;;;;;4.33;4.00;;;;;20.51;62.78;100511.97;5036944;28;45229;-70
2022/09/08 06:45:44;;;;;;;;;3.00;3.00;;;;;20.72;61.18;100486.50;5037303;28;45206;-68
2022/09/08 06:48:18;;;;;;;;;3.00;3.00;;;;;21.03;60.15;100498.38;5030697;28;45504;-70
2022/09/08 06:51:21;;;;;;;;;5.00;5.00;;;;;21.19;59.87;100495.97;5035063;28;45514;-67
2022/09/08 06:53:57;;;;;;;;;6.67;5.00;;;;;21.19;59.80;100493.25;5036213;28;45398;-69
2022/09/08 06:56:23;;;;;;;;;2.00;2.00;;;;;21.25;59.81;100500.53;5034680;28;45175;-69
2022/09/08 06:58:55;;;;;;;;;4.33;3.00;;;;;21.12;59.40;100461.91;5020629;28;46543;-70
2022/09/08 07:01:31;;;;;;;;;6.00;5.00;;;;;20.99;59.06;100418.75;5023775;28;45473;-67
2022/09/08 07:04:25;;;;;;;;;5.00;2.33;;;;;21.29;58.84;100459.53;5019251;28;45331;-69
2022/09/08 07:07:11;;;;;;;;;3.67;3.67;;;;;21.10;58.38;100423.47;5032996;28;45575;-68
2022/09/08 07:09:47;;;;;;;;;4.00;3.00;;;;;21.16;57.81;100409.06;5016270;28;45649;-74
2022/09/08 07:12:28;;;;;;;;;4.00;3.00;;;;;21.35;56.90;100429.72;5014940;28;46608;-70
2022/09/08 07:15:04;;;;;;;;;2.00;2.00;;;;;21.72;57.27;100506.38;5016692;28;45340;-70
2022/09/08 07:17:32;;;;;;;;;4.67;4.00;;;;;21.53;57.76;100483.84;5036077;28;45387;-69
2022/09/08 07:19:58;;;;;;;;;3.00;3.00;;;;;21.55;57.75;100495.28;5022883;28;45554;-70
2022/09/08 07:23:32;;;;;;;;;4.00;4.00;;;;;21.53;57.95;100502.78;5027185;28;45502;-68
2022/09/08 07:26:04;;;;;;;;;3.00;3.00;;;;;21.32;58.61;100494.25;5051651;27;45451;-71
2022/09/08 07:28:37;;;;;;;;;4.67;3.67;;;;;21.34;58.93;100497.53;5033977;28;45432;-69
2022/09/08 07:31:04;;;;;;;;;4.00;4.00;;;;;21.14;58.63;100489.56;5034322;28;47362;-70
2022/09/08 07:33:36;;;;;;;;;3.67;2.33;;;;;21.07;59.26;100499.59;5033957;28;45229;-69
2022/09/08 07:36:20;;;;;;;;;6.00;6.00;;;;;20.71;59.80;100463.25;5050826;28;45182;-71
2022/09/08 07:38:54;;;;;;;;;7.33;7.33;;;;;20.50;60.05;100441.97;5019617;28;45410;-71
2022/09/08 07:41:35;;;;;;;;;6.00;3.33;;;;;20.75;60.47;100499.56;5017792;28;48787;-70
2022/09/08 07:44:10;;;;;;;;;10.33;9.00;;;;;20.77;60.18;100481.28;5018960;28;45371;-69
2022/09/08 07:47:06;;;;;;;;;5.67;2.67;;;;;20.88;59.81;100494.09;5034916;28;45333;-70
2022/09/08 07:49:56;;;;;;;;;4.67;4.67;;;;;21.00;59.53;100512.31;5034811;28;45240;-69
2022/09/08 07:52:36;;;;;;;;;4.33;4.00;;;;;21.08;59.64;100509.38;5017885;28;46606;-69
2022/09/08 07:55:25;;;;;;;;;5.00;4.33;;;;;21.22;58.87;100505.50;5032398;28;45644;-71
2022/09/08 07:58:14;;;;;;;;;5.67;4.00;;;;;21.24;58.43;100508.88;5023671;28;45611;-69
2022/09/08 08:00:54;;;;;;;;;6.00;5.00;;;;;21.17;58.74;100508.88;5035437;28;45423;-68
2022/09/08 08:03:40;;;;;;;;;5.00;4.00;;;;;21.22;59.06;100505.50;5038953;28;45814;-68
2022/09/08 08:06:35;;;;;;;;;3.00;3.00;;;;;21.25;58.59;100505.94;5037335;28;46242;-70
2022/09/08 08:09:19;;;;;;;;;3.00;3.00;;;;;21.51;58.17;100507.59;5038821;28;45300;-69
2022/09/08 08:11:54;;;;;;;;;4.33;4.00;;;;;21.89;57.07;100501.22;5038444;28;45468;-69
2022/09/08 08:14:28;;;;;;;;;6.00;4.67;;;;;22.05;56.71;100506.06;5036329;28;45874;-68
2022/09/08 08:17:26;;;;;;;;;8.67;6.00;;;;;22.49;55.33;100506.81;5038870;28;45706;-69
2022/09/08 08:20:17;;;;;;;;;3.00;3.00;;;;;22.57;54.47;100509.19;5044566;28;45316;-72
2022/09/08 08:22:59;;;;;;;;;4.00;4.00;;;;;22.41;54.86;100512.50;5039047;28;45441;-68
2022/09/08 08:25:29;;;;;;;;;4.67;3.00;;;;;22.02;55.02;100492.09;5038094;28;47110;-70
2022/09/08 08:28:14;;;;;;;;;2.00;2.00;;;;;21.90;55.73;100512.88;5053911;28;45409;-68
2022/09/08 08:31:13;;;;;;;;;4.67;3.33;;;;;21.90;55.92;100516.41;5038339;28;45446;-70
2022/09/08 08:33:45;;;;;;;;;3.33;3.33;;;;;21.94;55.68;100493.22;5039931;28;45257;-68
2022/09/08 08:36:15;;;;;;;;;3.00;3.00;;;;;21.89;54.83;100441.66;5037214;28;48815;-67
2022/09/08 08:39:00;;;;;;;;;3.00;3.00;;;;;22.83;53.19;100509.94;5038249;28;45266;-70
2022/09/08 08:41:40;;;;;;;;;4.00;4.00;;;;;23.09;52.63;100536.66;5036857;28;45300;-67
2022/09/08 08:44:27;;;;;;;;;1.00;1.00;;;;;23.11;52.19;100526.41;5038557;28;45458;-67
2022/09/08 08:47:14;;;;;;;;;1.00;0.00;;;;;22.94;52.66;100509.13;5052734;28;48576;-73
2022/09/08 08:49:45;;;;;;;;;2.00;2.00;;;;;22.91;52.72;100534.00;5029064;28;45482;-70
2022/09/08 08:52:42;;;;;;;;;4.33;3.00;;;;;22.80;53.12;100529.31;5032933;28;45405;-69
2022/09/08 08:55:22;;;;;;;;;3.33;3.00;;;;;22.70;52.68;100533.41;5020109;28;45237;-67
2022/09/08 08:58:25;;;;;;;;;2.67;1.67;;;;;22.58;53.51;100537.09;5025769;28;46986;-70
2022/09/08 09:01:12;;;;;;;;;4.00;3.67;;;;;22.59;52.91;100544.19;5021909;28;45506;-69
2022/09/08 09:03:58;;;;;;;;;4.00;3.00;;;;;22.49;53.03;100543.91;5037852;28;45423;-68
2022/09/08 09:06:50;;;;;;;;;6.67;5.33;;;;;22.30;53.53;100556.63;5038115;28;45399;-77
2022/09/08 09:09:37;;;;;;;;;7.33;4.33;;;;;22.00;54.23;100549.19;5024024;28;47729;-67
2022/09/08 09:12:16;;;;;;;;;3.67;3.33;;;;;21.66;54.79;100533.50;5027164;28;45291;-67
2022/09/08 09:15:03;;;;;;;;;3.00;3.00;;;;;21.69;55.56;100543.88;5038961;28;45618;-68
2022/09/08 09:17:53;;;;;;;;;2.00;2.00;;;;;21.69;55.75;100543.88;5018376;28;45388;-69
2022/09/08 09:20:35;;;;;;;;;3.00;3.00;;;;;21.67;55.61;100551.38;5026238;28;46662;-70
2022/09/08 09:23:25;;;;;;;;;3.00;3.00;;;;;21.62;56.13;100548.50;5025155;28;45455;-69
2022/09/08 09:26:00;;;;;;;;;3.00;3.00;;;;;21.03;56.55;100476.75;5029014;28;45696;-70
2022/09/08 09:28:26;;;;;;;;;4.33;2.00;;;;;21.51;57.48;100556.28;5021448;28;45522;-69
2022/09/08 09:30:51;;;;;;;;;3.00;2.00;;;;;21.46;57.20;100553.41;5017610;28;46485;-67
2022/09/08 09:33:48;;;;;;;;;3.67;2.00;;;;;21.39;57.67;100549.91;5017547;28;45476;-67
2022/09/08 09:36:31;;;;;;;;;3.67;3.00;;;;;21.41;57.47;100547.00;5017632;28;45569;-68
2022/09/08 09:39:29;;;;;;;;;4.67;3.67;;;;;21.40;57.31;100540.75;5017643;28;45410;-68
2022/09/08 09:42:07;;;;;;;;;5.33;4.33;;;;;19.94;56.71;100280.69;5019119;28;45748;-68
2022/09/08 09:45:09;;;;;;;;;2.00;2.00;;;;;21.66;56.35;100538.91;5019392;28;45600;-69
2022/09/08 09:47:51;;;;;;;;;4.00;4.00;;;;;21.82;56.35;100539.19;5017560;28;45237;-70
2022/09/08 09:50:26;;;;;;;;;4.00;4.00;;;;;21.93;55.37;100534.91;5017173;28;45529;-71
2022/09/08 09:52:57;;;;;;;;;11.67;8.67;;;;;22.14;55.64;100530.97;5014972;28;45790;-68
2022/09/08 09:55:48;;;;;;;;;4.00;2.67;;;;;22.27;54.58;100524.56;5017986;28;45621;-69
2022/09/08 09:58:26;;;;;;;;;6.00;5.00;;;;;22.41;54.47;100520.63;5028212;28;45175;-69
2022/09/08 10:01:23;;;;;;;;;5.00;5.00;;;;;22.52;54.40;100527.19;5031885;28;45226;-69
2022/09/08 10:04:39;;;;;;;;;6.33;5.33;;;;;22.46;53.96;100512.69;5035468;28;46789;-69
2022/09/08 10:08:02;;;;;;;;;3.00;3.00;;;;;22.59;54.09;100526.03;5014308;28;46124;-69
2022/09/08 10:10:43;;;;;;;;;1.33;1.33;;;;;22.68;53.52;100527.41;5064256;28;45549;-69
2022/09/08 10:13:44;;;;;;;;;5.00;2.00;;;;;22.73;53.43;100519.41;5017436;28;45334;-69
2022/09/08 10:16:10;;;;;;;;;2.67;2.33;;;;;23.00;52.66;100519.03;5016951;28;45612;-70
2022/09/08 10:18:53;;;;;;;;;6.00;3.00;;;;;23.13;52.02;100494.44;5017176;28;45295;-70
2022/09/08 10:22:06;;;;;;;;;2.00;1.67;;;;;23.26;51.68;100509.69;5028496;28;45525;-72
2022/09/08 10:24:53;;;;;;;;;6.00;6.00;;;;;23.24;52.43;100512.66;5051326;28;45527;-69
2022/09/08 10:27:40;;;;;;;;;8.67;8.67;;;;;23.21;53.47;100496.81;5049516;28;48670;-71
2022/09/08 10:30:19;;;;;;;;;7.00;5.67;;;;;23.19;53.59;100498.94;5036410;28;45281;-70
2022/09/08 10:33:06;;;;;;;;;6.00;5.00;;;;;23.25;52.93;100487.19;5036710;28;45306;-68
2022/09/08 10:35:44;;;;;;;;;5.00;2.33;;;;;23.24;52.26;100490.94;5025500;28;45518;-69
2022/09/08 10:38:41;;;;;;;;;3.33;3.33;;;;;23.21;52.99;100483.25;5017407;28;46845;-71
2022/09/08 10:41:35;;;;;;;;;2.00;2.00;;;;;23.20;52.08;100487.03;5016269;28;45537;-72
2022/09/08 10:44:13;;;;;;;;;3.67;3.67;;;;;22.93;51.39;100412.59;5017908;28;45328;-70
2022/09/08 10:46:57;;;;;;;;;4.33;4.33;;;;;23.51;51.33;100485.91;5017747;28;45451;-69
2022/09/08 10:49:47;;;;;;;;;2.33;2.33;;;;;23.74;50.36;100487.00;5016740;28;45724;-71
2022/09/08 10:52:29;;;;;;;;;3.67;3.67;;;;;23.76;49.93;100458.53;5015346;28;45362;-71
2022/09/08 10:55:16;;;;;;;;;3.00;3.00;;;;;23.97;48.80;100479.63;5016315;28;45206;-72
2022/09/08 10:58:04;;;;;;;;;4.00;4.00;;;;;23.96;48.36;100480.72;5017067;28;45240;-70
2022/09/08 11:01:28;;;;;;;;;4.00;2.50;;;;;23.69;48.75;100465.16;5052688;28;47567;-70
2022/09/08 11:04:02;;;;;;;;;4.00;3.00;;;;;23.58;48.45;100480.38;5056498;28;45395;-69
2022/09/08 11:06:36;;;;;;;;;2.67;1.33;;;;;23.66;49.13;100480.03;5056195;28;45391;-68
2022/09/08 11:09:28;;;;;;;;;1.67;1.67;;;;;23.74;48.08;100468.81;5032568;28;45506;-69
2022/09/08 11:12:09;;;;;;;;;5.00;3.33;;;;;23.93;47.88;100481.19;5016819;28;45982;-71
2022/09/08 11:15:04;;;;;;;;;4.67;4.67;;;;;23.61;47.98;100390.34;5024113;28;45617;-69
2022/09/08 11:17:52;;;;;;;;;2.33;1.00;;;;;24.16;47.22;100468.63;5023346;28;45503;-69
2022/09/08 11:20:34;;;;;;;;;1.00;1.00;;;;;24.13;46.63;100463.69;5023288;28;45206;-70
2022/09/08 11:23:25;;;;;;;;;2.67;1.00;;;;;24.05;46.72;100456.75;5024662;28;45721;-71
2022/09/08 11:25:57;;;;;;;;;2.25;2.25;;;;;24.15;47.39;100477.84;5038580;28;45237;-71
2022/09/08 11:28:44;;;;;;;;;2.00;2.00;;;;;24.31;46.88;100482.56;5038425;28;45187;-71
2022/09/08 11:31:27;;;;;;;;;3.00;1.75;;;;;24.43;47.04;100494.22;5038723;28;45616;-71
2022/09/08 11:34:11;;;;;;;;;2.00;2.00;;;;;24.54;46.10;100487.91;5039610;28;45740;-72
2022/09/08 11:36:45;;;;;;;;;2.33;2.00;;;;;24.63;46.03;100484.81;5020901;28;45324;-70
2022/09/08 11:39:48;;;;;;;;;1.33;1.00;;;;;24.65;46.29;100485.41;5019450;28;45337;-71
2022/09/08 11:42:20;;;;;;;;;2.00;2.00;;;;;24.19;46.22;100432.84;5019618;28;45258;-70
2022/09/08 11:45:22;;;;;;;;;1.33;1.00;;;;;24.51;46.47;100477.53;5041058;28;47848;-71
2022/09/08 11:48:22;;;;;;;;;2.00;2.00;;;;;24.60;45.93;100477.13;5042336;28;45570;-71
2022/09/08 11:51:12;;;;;;;;;3.75;1.00;;;;;24.55;45.36;100475.97;5022527;28;45525;-70
2022/09/08 11:53:49;;;;;;;;;2.00;2.00;;;;;24.54;45.66;100482.47;5024403;28;45475;-70
2022/09/08 11:56:20;;;;;;;;;2.00;2.00;;;;;24.49;45.59;100474.25;5039122;28;45899;-72
2022/09/08 11:59:03;;;;;;;;;3.00;3.00;;;;;24.39;45.86;100457.72;5037656;28;45330;-71
2022/09/08 12:01:28;;;;;;;;;1.00;1.00;;;;;24.49;45.77;100468.81;5020135;28;45428;-73
2022/09/08 12:04:22;;;;;;;;;2.00;2.00;;;;;24.48;45.83;100461.72;5034800;28;45380;-70